sensor_id;sensor_type;location;lat;lon;timestamp;temperature;humidity
47757;SHT35;22147;52.388;13.390;2023-03-14T00:01:32;12.17;78.14
47757;SHT35;22147;52.388;13.390;2023-03-14T00:04:05;12.11;78.66
47757;SHT35;22147;52.388;13.390;2023-03-14T00:06:35;12.10;78.81
47757;SHT35;22147;52.388;13.390;2023-03-14T00:09:06;12.01;79.05
47757;SHT35;22147;52.388;13.390;2023-03-14T00:11:36;12.15;78.57
47757;SHT35;22147;52.388;13.390;2023-03-14T00:14:06;12.08;79.21
47757;SHT35;22147;52.388;13.390;2023-03-14T00:16:36;11.90;79.87
47757;SHT35;22147;52.388;13.390;2023-03-14T00:19:06;12.05;79.74
47757;SHT35;22147;52.388;13.390;2023-03-14T00:21:37;12.22;79.40
47757;SHT35;22147;52.388;13.390;2023-03-14T00:24:08;12.03;79.64
47757;SHT35;22147;52.388;13.390;2023-03-14T00:26:38;12.03;80.03
47757;SHT35;22147;52.388;13.390;2023-03-14T00:29:08;11.74;81.01
47757;SHT35;22147;52.388;13.390;2023-03-14T00:31:38;11.71;81.57
47757;SHT35;22147;52.388;13.390;2023-03-14T00:34:09;11.71;81.58
47757;SHT35;22147;52.388;13.390;2023-03-14T00:36:39;11.98;80.96
47757;SHT35;22147;52.388;13.390;2023-03-14T00:39:12;11.82;81.18
47757;SHT35;22147;52.388;13.390;2023-03-14T00:41:42;11.76;81.40
47757;SHT35;22147;52.388;13.390;2023-03-14T00:44:12;11.69;81.59
47757;SHT35;22147;52.388;13.390;2023-03-14T00:46:42;11.73;81.67
47757;SHT35;22147;52.388;13.390;2023-03-14T00:49:12;11.74;81.61
47757;SHT35;22147;52.388;13.390;2023-03-14T00:51:42;11.49;82.17
47757;SHT35;22147;52.388;13.390;2023-03-14T00:54:12;11.53;82.22
47757;SHT35;22147;52.388;13.390;2023-03-14T00:56:42;11.49;82.43
47757;SHT35;22147;52.388;13.390;2023-03-14T00:59:13;11.53;82.14
47757;SHT35;22147;52.388;13.390;2023-03-14T01:01:43;11.49;82.65
47757;SHT35;22147;52.388;13.390;2023-03-14T01:04:14;11.40;82.66
47757;SHT35;22147;52.388;13.390;2023-03-14T01:06:44;11.62;81.71
47757;SHT35;22147;52.388;13.390;2023-03-14T01:09:12;11.53;82.24
47757;SHT35;22147;52.388;13.390;2023-03-14T01:11:40;11.36;82.52
47757;SHT35;22147;52.388;13.390;2023-03-14T01:14:10;11.59;82.42
47757;SHT35;22147;52.388;13.390;2023-03-14T01:16:37;11.46;81.97
47757;SHT35;22147;52.388;13.390;2023-03-14T01:19:06;11.83;81.18
47757;SHT35;22147;52.388;13.390;2023-03-14T01:21:35;11.67;81.66
47757;SHT35;22147;52.388;13.390;2023-03-14T01:24:06;11.70;81.79
47757;SHT35;22147;52.388;13.390;2023-03-14T01:26:35;11.73;81.64
47757;SHT35;22147;52.388;13.390;2023-03-14T01:29:04;11.57;82.04
47757;SHT35;22147;52.388;13.390;2023-03-14T01:31:31;11.57;82.12
47757;SHT35;22147;52.388;13.390;2023-03-14T01:33:59;11.71;81.44
47757;SHT35;22147;52.388;13.390;2023-03-14T01:36:28;11.55;82.20
47757;SHT35;22147;52.388;13.390;2023-03-14T01:39:00;11.40;82.67
47757;SHT35;22147;52.388;13.390;2023-03-14T01:41:30;11.60;82.42
47757;SHT35;22147;52.388;13.390;2023-03-14T01:44:00;11.47;82.22
47757;SHT35;22147;52.388;13.390;2023-03-14T01:46:46;11.45;82.56
47757;SHT35;22147;52.388;13.390;2023-03-14T01:49:34;11.40;82.79
47757;SHT35;22147;52.388;13.390;2023-03-14T01:52:21;11.45;82.86
47757;SHT35;22147;52.388;13.390;2023-03-14T01:55:07;11.62;81.85
47757;SHT35;22147;52.388;13.390;2023-03-14T01:57:48;11.56;82.26
47757;SHT35;22147;52.388;13.390;2023-03-14T02:00:23;11.43;82.27
47757;SHT35;22147;52.388;13.390;2023-03-14T02:03:02;11.38;82.91
47757;SHT35;22147;52.388;13.390;2023-03-14T02:05:41;11.28;82.72
47757;SHT35;22147;52.388;13.390;2023-03-14T02:08:18;11.31;82.63
47757;SHT35;22147;52.388;13.390;2023-03-14T02:10:50;11.34;82.61
47757;SHT35;22147;52.388;13.390;2023-03-14T02:13:21;11.15;83.15
47757;SHT35;22147;52.388;13.390;2023-03-14T02:15:52;11.28;83.10
47757;SHT35;22147;52.388;13.390;2023-03-14T02:18:22;11.34;82.41
47757;SHT35;22147;52.388;13.390;2023-03-14T02:21:09;11.40;82.33
47757;SHT35;22147;52.388;13.390;2023-03-14T02:24:25;11.19;82.61
47757;SHT35;22147;52.388;13.390;2023-03-14T02:27:18;11.10;83.01
47757;SHT35;22147;52.388;13.390;2023-03-14T02:30:08;11.18;83.12
47757;SHT35;22147;52.388;13.390;2023-03-14T02:32:58;11.15;82.99
47757;SHT35;22147;52.388;13.390;2023-03-14T02:38:35;11.24;82.65
47757;SHT35;22147;52.388;13.390;2023-03-14T02:41:07;11.19;83.07
47757;SHT35;22147;52.388;13.390;2023-03-14T02:43:37;11.34;82.40
47757;SHT35;22147;52.388;13.390;2023-03-14T02:46:14;11.43;82.57
47757;SHT35;22147;52.388;13.390;2023-03-14T02:49:06;11.40;81.81
47757;SHT35;22147;52.388;13.390;2023-03-14T02:51:41;11.49;82.01
47757;SHT35;22147;52.388;13.390;2023-03-14T02:54:15;11.53;81.22
47757;SHT35;22147;52.388;13.390;2023-03-14T02:56:46;11.38;82.02
47757;SHT35;22147;52.388;13.390;2023-03-14T02:59:16;11.19;82.21
47757;SHT35;22147;52.388;13.390;2023-03-14T03:01:46;11.45;82.02
47757;SHT35;22147;52.388;13.390;2023-03-14T03:04:16;11.49;81.79
47757;SHT35;22147;52.388;13.390;2023-03-14T03:06:46;11.34;81.68
47757;SHT35;22147;52.388;13.390;2023-03-14T03:09:16;11.26;82.39
47757;SHT35;22147;52.388;13.390;2023-03-14T03:11:46;11.40;81.72
47757;SHT35;22147;52.388;13.390;2023-03-14T03:14:16;11.35;81.58
47757;SHT35;22147;52.388;13.390;2023-03-14T03:16:46;11.35;81.71
47757;SHT35;22147;52.388;13.390;2023-03-14T03:19:16;11.19;82.29
47757;SHT35;22147;52.388;13.390;2023-03-14T03:21:47;11.19;82.56
47757;SHT35;22147;52.388;13.390;2023-03-14T03:24:18;11.34;81.70
47757;SHT35;22147;52.388;13.390;2023-03-14T03:26:48;11.19;81.90
47757;SHT35;22147;52.388;13.390;2023-03-14T03:29:19;11.26;81.81
47757;SHT35;22147;52.388;13.390;2023-03-14T03:31:49;11.14;82.45
47757;SHT35;22147;52.388;13.390;2023-03-14T03:34:19;11.02;82.64
47757;SHT35;22147;52.388;13.390;2023-03-14T03:36:49;10.97;82.89
47757;SHT35;22147;52.388;13.390;2023-03-14T03:39:19;11.08;82.42
47757;SHT35;22147;52.388;13.390;2023-03-14T03:41:49;10.92;83.25
47757;SHT35;22147;52.388;13.390;2023-03-14T03:44:19;11.01;82.81
47757;SHT35;22147;52.388;13.390;2023-03-14T03:46:49;10.92;82.96
47757;SHT35;22147;52.388;13.390;2023-03-14T03:49:19;10.95;82.76
47757;SHT35;22147;52.388;13.390;2023-03-14T03:51:49;10.81;83.03
47757;SHT35;22147;52.388;13.390;2023-03-14T03:54:20;10.97;82.79
47757;SHT35;22147;52.388;13.390;2023-03-14T03:56:51;10.88;82.54
47757;SHT35;22147;52.388;13.390;2023-03-14T03:59:21;11.02;82.29
47757;SHT35;22147;52.388;13.390;2023-03-14T04:01:51;10.95;82.16
47757;SHT35;22147;52.388;13.390;2023-03-14T04:04:21;10.88;82.42
47757;SHT35;22147;52.388;13.390;2023-03-14T04:06:52;10.83;82.95
47757;SHT35;22147;52.388;13.390;2023-03-14T04:09:22;10.95;81.91
47757;SHT35;22147;52.388;13.390;2023-03-14T04:11:52;10.80;82.40
47757;SHT35;22147;52.388;13.390;2023-03-14T04:14:23;10.80;82.28
47757;SHT35;22147;52.388;13.390;2023-03-14T04:16:53;10.85;82.36
47757;SHT35;22147;52.388;13.390;2023-03-14T04:19:23;10.85;82.00
47757;SHT35;22147;52.388;13.390;2023-03-14T04:21:53;10.84;82.52
47757;SHT35;22147;52.388;13.390;2023-03-14T04:24:23;10.80;82.08
47757;SHT35;22147;52.388;13.390;2023-03-14T04:26:54;10.88;81.76
47757;SHT35;22147;52.388;13.390;2023-03-14T04:29:24;10.71;82.44
47757;SHT35;22147;52.388;13.390;2023-03-14T04:31:52;10.70;82.37
47757;SHT35;22147;52.388;13.390;2023-03-14T04:34:20;10.76;82.13
47757;SHT35;22147;52.388;13.390;2023-03-14T04:36:49;10.76;81.83
47757;SHT35;22147;52.388;13.390;2023-03-14T04:39:17;10.77;81.72
47757;SHT35;22147;52.388;13.390;2023-03-14T04:41:46;10.56;82.43
47757;SHT35;22147;52.388;13.390;2023-03-14T04:44:14;10.57;82.49
47757;SHT35;22147;52.388;13.390;2023-03-14T04:46:58;10.61;82.31
47757;SHT35;22147;52.388;13.390;2023-03-14T04:49:28;10.80;81.47
47757;SHT35;22147;52.388;13.390;2023-03-14T04:51:56;10.87;80.90
47757;SHT35;22147;52.388;13.390;2023-03-14T04:54:25;10.78;81.22
47757;SHT35;22147;52.388;13.390;2023-03-14T04:56:53;10.81;81.24
47757;SHT35;22147;52.388;13.390;2023-03-14T04:59:22;10.66;81.54
47757;SHT35;22147;52.388;13.390;2023-03-14T05:01:50;10.80;80.81
47757;SHT35;22147;52.388;13.390;2023-03-14T05:04:19;10.78;80.73
47757;SHT35;22147;52.388;13.390;2023-03-14T05:06:47;10.77;81.28
47757;SHT35;22147;52.388;13.390;2023-03-14T05:09:15;10.64;80.94
47757;SHT35;22147;52.388;13.390;2023-03-14T05:11:44;10.49;81.55
47757;SHT35;22147;52.388;13.390;2023-03-14T05:14:12;10.63;81.34
47757;SHT35;22147;52.388;13.390;2023-03-14T05:16:41;10.70;80.51
47757;SHT35;22147;52.388;13.390;2023-03-14T05:19:11;10.73;80.42
47757;SHT35;22147;52.388;13.390;2023-03-14T05:21:41;10.70;80.11
47757;SHT35;22147;52.388;13.390;2023-03-14T05:24:11;10.76;80.24
47757;SHT35;22147;52.388;13.390;2023-03-14T05:26:40;10.73;79.78
47757;SHT35;22147;52.388;13.390;2023-03-14T05:29:10;10.83;79.53
47757;SHT35;22147;52.388;13.390;2023-03-14T05:31:40;10.81;79.33
47757;SHT35;22147;52.388;13.390;2023-03-14T05:34:10;10.63;79.66
47757;SHT35;22147;52.388;13.390;2023-03-14T05:36:40;10.80;79.34
47757;SHT35;22147;52.388;13.390;2023-03-14T05:39:10;10.80;79.41
47757;SHT35;22147;52.388;13.390;2023-03-14T05:41:40;10.92;78.55
47757;SHT35;22147;52.388;13.390;2023-03-14T05:44:10;10.85;78.29
47757;SHT35;22147;52.388;13.390;2023-03-14T05:46:40;10.69;79.11
47757;SHT35;22147;52.388;13.390;2023-03-14T05:49:10;10.67;79.23
47757;SHT35;22147;52.388;13.390;2023-03-14T05:51:40;10.87;78.16
47757;SHT35;22147;52.388;13.390;2023-03-14T05:54:10;10.70;78.49
47757;SHT35;22147;52.388;13.390;2023-03-14T05:56:40;10.77;77.94
47757;SHT35;22147;52.388;13.390;2023-03-14T05:59:09;10.85;77.76
47757;SHT35;22147;52.388;13.390;2023-03-14T06:01:40;10.84;78.13
47757;SHT35;22147;52.388;13.390;2023-03-14T06:04:10;10.78;77.62
47757;SHT35;22147;52.388;13.390;2023-03-14T06:06:40;10.84;77.43
47757;SHT35;22147;52.388;13.390;2023-03-14T06:09:10;10.94;76.73
47757;SHT35;22147;52.388;13.390;2023-03-14T06:11:39;10.95;76.80
47757;SHT35;22147;52.388;13.390;2023-03-14T06:14:09;10.99;76.53
47757;SHT35;22147;52.388;13.390;2023-03-14T06:16:38;11.17;76.06
47757;SHT35;22147;52.388;13.390;2023-03-14T06:19:06;11.15;76.02
47757;SHT35;22147;52.388;13.390;2023-03-14T06:21:35;11.12;75.93
47757;SHT35;22147;52.388;13.390;2023-03-14T06:24:03;11.31;75.26
47757;SHT35;22147;52.388;13.390;2023-03-14T06:26:31;11.21;75.79
47757;SHT35;22147;52.388;13.390;2023-03-14T06:29:00;11.49;74.71
47757;SHT35;22147;52.388;13.390;2023-03-14T06:31:32;11.39;74.86
47757;SHT35;22147;52.388;13.390;2023-03-14T06:34:00;11.18;75.84
47757;SHT35;22147;52.388;13.390;2023-03-14T06:36:28;11.39;75.26
47757;SHT35;22147;52.388;13.390;2023-03-14T06:38:57;11.31;74.98
47757;SHT35;22147;52.388;13.390;2023-03-14T06:41:25;11.52;74.63
47757;SHT35;22147;52.388;13.390;2023-03-14T06:43:53;11.60;74.53
47757;SHT35;22147;52.388;13.390;2023-03-14T06:46:25;11.70;74.00
47757;SHT35;22147;52.388;13.390;2023-03-14T06:48:55;11.66;73.96
47757;SHT35;22147;52.388;13.390;2023-03-14T06:51:25;11.66;74.21
47757;SHT35;22147;52.388;13.390;2023-03-14T06:53:55;11.56;74.06
47757;SHT35;22147;52.388;13.390;2023-03-14T06:56:24;11.53;74.41
47757;SHT35;22147;52.388;13.390;2023-03-14T06:58:54;11.59;74.41
47757;SHT35;22147;52.388;13.390;2023-03-14T07:01:28;11.65;74.13
47757;SHT35;22147;52.388;13.390;2023-03-14T07:03:59;11.80;74.08
47757;SHT35;22147;52.388;13.390;2023-03-14T07:06:29;12.08;72.96
47757;SHT35;22147;52.388;13.390;2023-03-14T07:08:59;12.05;72.82
47757;SHT35;22147;52.388;13.390;2023-03-14T07:11:31;12.22;72.30
47757;SHT35;22147;52.388;13.390;2023-03-14T07:14:01;11.91;73.27
47757;SHT35;22147;52.388;13.390;2023-03-14T07:16:31;11.80;73.22
47757;SHT35;22147;52.388;13.390;2023-03-14T07:19:03;11.74;74.36
47757;SHT35;22147;52.388;13.390;2023-03-14T07:21:33;11.95;73.33
47757;SHT35;22147;52.388;13.390;2023-03-14T07:24:05;12.05;73.01
47757;SHT35;22147;52.388;13.390;2023-03-14T07:26:35;11.83;73.66
47757;SHT35;22147;52.388;13.390;2023-03-14T07:29:05;11.90;74.13
47757;SHT35;22147;52.388;13.390;2023-03-14T07:31:34;11.98;73.47
47757;SHT35;22147;52.388;13.390;2023-03-14T07:34:04;12.31;72.42
47757;SHT35;22147;52.388;13.390;2023-03-14T07:36:34;12.13;72.69
47757;SHT35;22147;52.388;13.390;2023-03-14T07:39:04;11.74;73.70
47757;SHT35;22147;52.388;13.390;2023-03-14T07:41:34;11.84;73.88
47757;SHT35;22147;52.388;13.390;2023-03-14T07:44:04;11.82;74.02
47757;SHT35;22147;52.388;13.390;2023-03-14T07:46:34;11.95;73.46
47757;SHT35;22147;52.388;13.390;2023-03-14T07:49:04;11.84;73.88
47757;SHT35;22147;52.388;13.390;2023-03-14T07:51:34;11.90;73.62
47757;SHT35;22147;52.388;13.390;2023-03-14T07:54:04;11.74;74.16
47757;SHT35;22147;52.388;13.390;2023-03-14T07:56:34;12.11;73.34
47757;SHT35;22147;52.388;13.390;2023-03-14T07:59:03;12.14;72.71
47757;SHT35;22147;52.388;13.390;2023-03-14T08:01:34;12.53;71.91
47757;SHT35;22147;52.388;13.390;2023-03-14T08:04:03;12.72;71.19
47757;SHT35;22147;52.388;13.390;2023-03-14T08:06:36;12.56;71.50
47757;SHT35;22147;52.388;13.390;2023-03-14T08:09:06;12.65;71.70
47757;SHT35;22147;52.388;13.390;2023-03-14T08:11:36;12.62;71.27
47757;SHT35;22147;52.388;13.390;2023-03-14T08:14:05;12.41;71.59
47757;SHT35;22147;52.388;13.390;2023-03-14T08:16:35;12.56;71.87
47757;SHT35;22147;52.388;13.390;2023-03-14T08:19:05;12.71;71.31
47757;SHT35;22147;52.388;13.390;2023-03-14T08:21:35;12.69;71.37
47757;SHT35;22147;52.388;13.390;2023-03-14T08:24:05;12.75;70.73
47757;SHT35;22147;52.388;13.390;2023-03-14T08:26:35;12.56;71.40
47757;SHT35;22147;52.388;13.390;2023-03-14T08:29:05;12.86;70.12
47757;SHT35;22147;52.388;13.390;2023-03-14T08:31:35;12.80;69.82
47757;SHT35;22147;52.388;13.390;2023-03-14T08:34:06;12.56;70.30
47757;SHT35;22147;52.388;13.390;2023-03-14T08:36:36;12.62;71.23
47757;SHT35;22147;52.388;13.390;2023-03-14T08:39:07;12.52;71.40
47757;SHT35;22147;52.388;13.390;2023-03-14T08:41:37;12.59;70.83
47757;SHT35;22147;52.388;13.390;2023-03-14T08:44:11;12.62;71.04
47757;SHT35;22147;52.388;13.390;2023-03-14T08:46:41;12.63;70.61
47757;SHT35;22147;52.388;13.390;2023-03-14T08:49:09;12.61;71.33
47757;SHT35;22147;52.388;13.390;2023-03-14T08:51:38;12.58;71.24
47757;SHT35;22147;52.388;13.390;2023-03-14T08:54:12;12.68;71.38
47757;SHT35;22147;52.388;13.390;2023-03-14T08:56:41;12.59;71.43
47757;SHT35;22147;52.388;13.390;2023-03-14T08:59:09;12.73;71.19
47757;SHT35;22147;52.388;13.390;2023-03-14T09:01:38;12.49;71.40
47757;SHT35;22147;52.388;13.390;2023-03-14T09:04:06;12.72;70.79
47757;SHT35;22147;52.388;13.390;2023-03-14T09:06:35;12.84;70.59
47757;SHT35;22147;52.388;13.390;2023-03-14T09:09:03;12.62;70.81
47757;SHT35;22147;52.388;13.390;2023-03-14T09:11:32;12.80;71.05
47757;SHT35;22147;52.388;13.390;2023-03-14T09:14:00;13.21;69.68
47757;SHT35;22147;52.388;13.390;2023-03-14T09:16:28;13.76;68.59
47757;SHT35;22147;52.388;13.390;2023-03-14T09:18:57;14.38;67.36
47757;SHT35;22147;52.388;13.390;2023-03-14T09:21:29;14.84;64.87
47757;SHT35;22147;52.388;13.390;2023-03-14T09:23:59;15.36;63.01
47757;SHT35;22147;52.388;13.390;2023-03-14T09:26:27;15.65;62.50
47757;SHT35;22147;52.388;13.390;2023-03-14T09:28:56;15.70;61.18
47757;SHT35;22147;52.388;13.390;2023-03-14T09:31:24;15.71;61.57
47757;SHT35;22147;52.388;13.390;2023-03-14T09:33:53;15.94;60.54
47757;SHT35;22147;52.388;13.390;2023-03-14T09:36:21;16.12;60.65
47757;SHT35;22147;52.388;13.390;2023-03-14T09:38:50;16.43;58.73
47757;SHT35;22147;52.388;13.390;2023-03-14T09:41:36;16.06;60.13
47757;SHT35;22147;52.388;13.390;2023-03-14T09:44:21;15.87;60.07
47757;SHT35;22147;52.388;13.390;2023-03-14T09:47:00;16.19;59.11
47757;SHT35;22147;52.388;13.390;2023-03-14T09:49:50;15.54;60.32
47757;SHT35;22147;52.388;13.390;2023-03-14T09:52:32;15.44;60.81
47757;SHT35;22147;52.388;13.390;2023-03-14T09:55:20;15.30;60.56
47757;SHT35;22147;52.388;13.390;2023-03-14T09:58:03;14.82;60.35
47757;SHT35;22147;52.388;13.390;2023-03-14T10:00:35;14.72;62.00
47757;SHT35;22147;52.388;13.390;2023-03-14T10:05:42;14.33;61.30
47757;SHT35;22147;52.388;13.390;2023-03-14T10:08:13;14.36;62.11
47757;SHT35;22147;52.388;13.390;2023-03-14T10:10:42;14.41;62.43
47757;SHT35;22147;52.388;13.390;2023-03-14T10:13:25;14.10;62.30
47757;SHT35;22147;52.388;13.390;2023-03-14T10:16:04;14.33;61.50
47757;SHT35;22147;52.388;13.390;2023-03-14T10:18:35;14.16;62.56
47757;SHT35;22147;52.388;13.390;2023-03-14T10:21:29;14.30;62.17
47757;SHT35;22147;52.388;13.390;2023-03-14T10:24:25;14.10;62.46
47757;SHT35;22147;52.388;13.390;2023-03-14T10:27:17;14.03;62.36
47757;SHT35;22147;52.388;13.390;2023-03-14T10:30:14;14.13;61.97
47757;SHT35;22147;52.388;13.390;2023-03-14T10:32:56;14.14;61.59
47757;SHT35;22147;52.388;13.390;2023-03-14T10:35:26;13.99;62.90
47757;SHT35;22147;52.388;13.390;2023-03-14T10:38:03;13.73;63.67
47757;SHT35;22147;52.388;13.390;2023-03-14T10:40:39;13.95;62.44
47757;SHT35;22147;52.388;13.390;2023-03-14T10:43:19;13.95;62.63
47757;SHT35;22147;52.388;13.390;2023-03-14T10:46:15;13.72;62.70
47757;SHT35;22147;52.388;13.390;2023-03-14T10:48:47;13.73;62.86
47757;SHT35;22147;52.388;13.390;2023-03-14T10:51:29;13.93;62.74
47757;SHT35;22147;52.388;13.390;2023-03-14T10:54:19;13.90;63.42
47757;SHT35;22147;52.388;13.390;2023-03-14T10:57:00;13.73;64.95
47757;SHT35;22147;52.388;13.390;2023-03-14T10:59:41;13.68;64.58
47757;SHT35;22147;52.388;13.390;2023-03-14T11:06:23;13.83;64.01
47757;SHT35;22147;52.388;13.390;2023-03-14T11:09:39;13.82;64.25
47757;SHT35;22147;52.388;13.390;2023-03-14T11:25:32;13.72;65.23
47757;SHT35;22147;52.388;13.390;2023-03-14T11:28:35;13.90;64.57
47757;SHT35;22147;52.388;13.390;2023-03-14T11:31:18;13.86;64.77
47757;SHT35;22147;52.388;13.390;2023-03-14T11:34:16;13.82;65.34
47757;SHT35;22147;52.388;13.390;2023-03-14T11:37:10;13.90;65.13
47757;SHT35;22147;52.388;13.390;2023-03-14T11:40:05;13.99;65.45
47757;SHT35;22147;52.388;13.390;2023-03-14T11:42:44;13.83;66.10
47757;SHT35;22147;52.388;13.390;2023-03-14T11:45:35;13.59;67.46
47757;SHT35;22147;52.388;13.390;2023-03-14T11:51:17;13.16;72.48
47757;SHT35;22147;52.388;13.390;2023-03-14T11:54:14;13.07;71.09
47757;SHT35;22147;52.388;13.390;2023-03-14T11:57:10;13.06;71.48
47757;SHT35;22147;52.388;13.390;2023-03-14T12:00:05;13.04;72.86
47757;SHT35;22147;52.388;13.390;2023-03-14T12:09:08;12.46;77.08
47757;SHT35;22147;52.388;13.390;2023-03-14T12:12:03;13.01;75.26
47757;SHT35;22147;52.388;13.390;2023-03-14T12:14:37;12.92;74.86
47757;SHT35;22147;52.388;13.390;2023-03-14T12:17:40;12.99;73.84
47757;SHT35;22147;52.388;13.390;2023-03-14T12:23:03;12.97;75.87
47757;SHT35;22147;52.388;13.390;2023-03-14T12:25:34;13.17;73.22
47757;SHT35;22147;52.388;13.390;2023-03-14T12:28:21;13.17;71.81
47757;SHT35;22147;52.388;13.390;2023-03-14T12:30:49;13.31;71.53
47757;SHT35;22147;52.388;13.390;2023-03-14T12:33:19;13.19;71.08
47757;SHT35;22147;52.388;13.390;2023-03-14T12:36:00;13.59;69.92
47757;SHT35;22147;52.388;13.390;2023-03-14T12:41:48;13.73;69.17
47757;SHT35;22147;52.388;13.390;2023-03-14T12:49:54;14.50;68.08
47757;SHT35;22147;52.388;13.390;2023-03-14T12:53:01;14.36;67.74
47757;SHT35;22147;52.388;13.390;2023-03-14T13:05:17;13.93;68.13
47757;SHT35;22147;52.388;13.390;2023-03-14T13:10:38;14.05;67.28
47757;SHT35;22147;52.388;13.390;2023-03-14T13:13:22;14.10;66.60
47757;SHT35;22147;52.388;13.390;2023-03-14T13:16:02;14.00;66.91
47757;SHT35;22147;52.388;13.390;2023-03-14T13:19:15;13.90;66.78
47757;SHT35;22147;52.388;13.390;2023-03-14T13:21:47;14.03;67.32
47757;SHT35;22147;52.388;13.390;2023-03-14T13:24:26;14.23;66.38
47757;SHT35;22147;52.388;13.390;2023-03-14T13:31:30;15.37;65.46
47757;SHT35;22147;52.388;13.390;2023-03-14T13:34:09;15.81;64.19
47757;SHT35;22147;52.388;13.390;2023-03-14T13:36:39;15.92;64.75
47757;SHT35;22147;52.388;13.390;2023-03-14T13:39:19;15.64;66.26
47757;SHT35;22147;52.388;13.390;2023-03-14T13:41:58;15.36;67.38
47757;SHT35;22147;52.388;13.390;2023-03-14T13:44:38;14.38;70.35
47757;SHT35;22147;52.388;13.390;2023-03-14T13:47:20;14.51;70.15
47757;SHT35;22147;52.388;13.390;2023-03-14T13:49:52;14.81;70.10
47757;SHT35;22147;52.388;13.390;2023-03-14T13:52:29;15.30;68.21
47757;SHT35;22147;52.388;13.390;2023-03-14T13:55:05;14.63;69.63
47757;SHT35;22147;52.388;13.390;2023-03-14T13:57:50;15.15;68.91
47757;SHT35;22147;52.388;13.390;2023-03-14T14:00:28;15.67;66.74
47757;SHT35;22147;52.388;13.390;2023-03-14T14:03:00;15.73;65.89
47757;SHT35;22147;52.388;13.390;2023-03-14T14:05:30;15.64;66.27
47757;SHT35;22147;52.388;13.390;2023-03-14T14:08:03;15.05;68.00
47757;SHT35;22147;52.388;13.390;2023-03-14T14:10:37;14.85;68.48
47757;SHT35;22147;52.388;13.390;2023-03-14T14:13:18;15.06;67.42
47757;SHT35;22147;52.388;13.390;2023-03-14T14:15:55;14.89;68.40
47757;SHT35;22147;52.388;13.390;2023-03-14T14:18:32;15.44;67.55
47757;SHT35;22147;52.388;13.390;2023-03-14T14:21:04;15.68;65.42
47757;SHT35;22147;52.388;13.390;2023-03-14T14:23:36;15.32;64.23
47757;SHT35;22147;52.388;13.390;2023-03-14T14:26:06;14.63;65.64
47757;SHT35;22147;52.388;13.390;2023-03-14T14:28:37;14.99;66.02
47757;SHT35;22147;52.388;13.390;2023-03-14T14:33:58;15.68;63.26
47757;SHT35;22147;52.388;13.390;2023-03-14T14:36:40;15.53;64.15
47757;SHT35;22147;52.388;13.390;2023-03-14T14:39:26;15.81;63.55
47757;SHT35;22147;52.388;13.390;2023-03-14T14:41:56;15.74;63.78
47757;SHT35;22147;52.388;13.390;2023-03-14T14:44:34;15.68;64.39
47757;SHT35;22147;52.388;13.390;2023-03-14T14:47:05;15.90;64.29
47757;SHT35;22147;52.388;13.390;2023-03-14T14:49:35;15.65;64.88
47757;SHT35;22147;52.388;13.390;2023-03-14T14:52:31;15.10;66.23
47757;SHT35;22147;52.388;13.390;2023-03-14T14:55:03;14.58;67.44
47757;SHT35;22147;52.388;13.390;2023-03-14T14:57:38;14.54;68.10
47757;SHT35;22147;52.388;13.390;2023-03-14T15:00:25;14.47;68.46
47757;SHT35;22147;52.388;13.390;2023-03-14T15:02:59;14.41;68.38
47757;SHT35;22147;52.388;13.390;2023-03-14T15:05:29;14.13;69.57
47757;SHT35;22147;52.388;13.390;2023-03-14T15:08:12;14.12;69.64
47757;SHT35;22147;52.388;13.390;2023-03-14T15:10:42;14.26;69.21
47757;SHT35;22147;52.388;13.390;2023-03-14T15:13:12;13.98;70.68
47757;SHT35;22147;52.388;13.390;2023-03-14T15:15:44;13.88;71.17
47757;SHT35;22147;52.388;13.390;2023-03-14T15:18:18;13.90;71.24
47757;SHT35;22147;52.388;13.390;2023-03-14T15:20:48;13.63;72.46
47757;SHT35;22147;52.388;13.390;2023-03-14T15:23:22;13.52;72.41
47757;SHT35;22147;52.388;13.390;2023-03-14T15:25:52;12.34;69.19
47757;SHT35;22147;52.388;13.390;2023-03-14T15:28:29;9.97;76.47
47757;SHT35;22147;52.388;13.390;2023-03-14T15:30:59;8.57;82.72
47757;SHT35;22147;52.388;13.390;2023-03-14T15:33:29;7.85;84.53
47757;SHT35;22147;52.388;13.390;2023-03-14T15:35:56;7.50;85.84
47757;SHT35;22147;52.388;13.390;2023-03-14T15:38:27;7.31;86.16
47757;SHT35;22147;52.388;13.390;2023-03-14T15:40:56;7.14;85.74
47757;SHT35;22147;52.388;13.390;2023-03-14T15:43:26;6.89;86.83
47757;SHT35;22147;52.388;13.390;2023-03-14T15:45:56;6.75;87.62
47757;SHT35;22147;52.388;13.390;2023-03-14T15:48:27;6.52;87.61
47757;SHT35;22147;52.388;13.390;2023-03-14T15:50:56;6.30;86.53
47757;SHT35;22147;52.388;13.390;2023-03-14T15:53:26;6.16;86.58
47757;SHT35;22147;52.388;13.390;2023-03-14T15:55:56;5.86;86.51
47757;SHT35;22147;52.388;13.390;2023-03-14T15:58:26;5.80;86.45
47757;SHT35;22147;52.388;13.390;2023-03-14T16:00:56;5.58;86.92
47757;SHT35;22147;52.388;13.390;2023-03-14T16:03:27;5.42;87.74
47757;SHT35;22147;52.388;13.390;2023-03-14T16:05:56;5.13;87.43
47757;SHT35;22147;52.388;13.390;2023-03-14T16:08:26;4.88;86.52
47757;SHT35;22147;52.388;13.390;2023-03-14T16:10:59;4.53;86.43
47757;SHT35;22147;52.388;13.390;2023-03-14T16:13:29;4.26;86.78
47757;SHT35;22147;52.388;13.390;2023-03-14T16:16:04;4.01;86.99
47757;SHT35;22147;52.388;13.390;2023-03-14T16:18:38;3.76;88.09
47757;SHT35;22147;52.388;13.390;2023-03-14T16:21:14;3.59;87.81
47757;SHT35;22147;52.388;13.390;2023-03-14T16:23:45;3.47;88.40
47757;SHT35;22147;52.388;13.390;2023-03-14T16:26:19;3.32;88.98
47757;SHT35;22147;52.388;13.390;2023-03-14T16:28:48;3.23;87.56
47757;SHT35;22147;52.388;13.390;2023-03-14T16:31:19;2.98;88.02
47757;SHT35;22147;52.388;13.390;2023-03-14T16:33:54;2.80;88.64
47757;SHT35;22147;52.388;13.390;2023-03-14T16:36:23;2.58;88.17
47757;SHT35;22147;52.388;13.390;2023-03-14T16:38:52;2.37;88.76
47757;SHT35;22147;52.388;13.390;2023-03-14T16:41:20;2.37;89.22
47757;SHT35;22147;52.388;13.390;2023-03-14T16:43:49;2.26;89.46
47757;SHT35;22147;52.388;13.390;2023-03-14T16:46:20;2.19;89.73
47757;SHT35;22147;52.388;13.390;2023-03-14T16:48:49;2.20;89.99
47757;SHT35;22147;52.388;13.390;2023-03-14T16:51:18;2.28;90.26
47757;SHT35;22147;52.388;13.390;2023-03-14T16:53:47;2.40;89.82
47757;SHT35;22147;52.388;13.390;2023-03-14T16:56:15;2.36;89.48
47757;SHT35;22147;52.388;13.390;2023-03-14T16:58:48;2.28;89.98
47757;SHT35;22147;52.388;13.390;2023-03-14T17:01:18;2.30;89.92